sensor_id;sensor_type;location;lat;lon;timestamp;P1;durP1;ratioP1;P2;durP2;ratioP2
69847;SDS011;57143;55.940;37.496;2024-03-22T00:00:14;12.98;;;5.60;;
69847;SDS011;57143;55.940;37.496;2024-03-22T00:02:41;14.05;;;4.57;;
69847;SDS011;57143;55.940;37.496;2024-03-22T00:05:08;16.83;;;4.72;;
69847;SDS011;57143;55.940;37.496;2024-03-22T00:07:36;18.10;;;5.47;;
69847;SDS011;57143;55.940;37.496;2024-03-22T00:10:04;18.55;;;5.03;;
69847;SDS011;57143;55.940;37.496;2024-03-22T00:12:32;17.35;;;5.20;;
69847;SDS011;57143;55.940;37.496;2024-03-22T00:14:58;14.00;;;5.28;;
69847;SDS011;57143;55.940;37.496;2024-03-22T00:17:26;13.43;;;4.60;;
69847;SDS011;57143;55.940;37.496;2024-03-22T00:19:52;11.50;;;4.70;;
69847;SDS011;57143;55.940;37.496;2024-03-22T00:22:19;16.13;;;6.13;;
69847;SDS011;57143;55.940;37.496;2024-03-22T00:24:47;12.60;;;4.78;;
69847;SDS011;57143;55.940;37.496;2024-03-22T00:27:14;12.02;;;4.65;;
69847;SDS011;57143;55.940;37.496;2024-03-22T00:29:41;14.48;;;4.95;;
69847;SDS011;57143;55.940;37.496;2024-03-22T00:32:09;10.50;;;4.40;;
69847;SDS011;57143;55.940;37.496;2024-03-22T00:34:35;12.48;;;4.97;;
69847;SDS011;57143;55.940;37.496;2024-03-22T00:37:03;11.93;;;4.35;;
69847;SDS011;57143;55.940;37.496;2024-03-22T00:39:29;11.63;;;5.15;;
69847;SDS011;57143;55.940;37.496;2024-03-22T00:41:58;12.85;;;4.65;;
69847;SDS011;57143;55.940;37.496;2024-03-22T00:44:25;11.60;;;4.20;;
69847;SDS011;57143;55.940;37.496;2024-03-22T00:46:52;15.40;;;4.70;;
69847;SDS011;57143;55.940;37.496;2024-03-22T00:49:19;13.77;;;4.43;;
69847;SDS011;57143;55.940;37.496;2024-03-22T00:51:46;11.40;;;3.97;;
69847;SDS011;57143;55.940;37.496;2024-03-22T00:54:13;15.52;;;5.05;;
69847;SDS011;57143;55.940;37.496;2024-03-22T00:56:40;11.77;;;3.87;;
69847;SDS011;57143;55.940;37.496;2024-03-22T00:59:08;12.95;;;4.90;;
69847;SDS011;57143;55.940;37.496;2024-03-22T01:01:35;15.27;;;4.57;;
69847;SDS011;57143;55.940;37.496;2024-03-22T01:04:02;12.25;;;4.68;;
69847;SDS011;57143;55.940;37.496;2024-03-22T01:06:29;12.02;;;5.03;;
69847;SDS011;57143;55.940;37.496;2024-03-22T01:08:55;13.60;;;4.77;;
69847;SDS011;57143;55.940;37.496;2024-03-22T01:11:23;14.20;;;4.65;;
69847;SDS011;57143;55.940;37.496;2024-03-22T01:13:49;10.27;;;4.07;;
69847;SDS011;57143;55.940;37.496;2024-03-22T01:16:18;12.15;;;4.60;;
69847;SDS011;57143;55.940;37.496;2024-03-22T01:18:44;12.55;;;5.13;;
69847;SDS011;57143;55.940;37.496;2024-03-22T01:21:11;9.37;;;3.63;;
69847;SDS011;57143;55.940;37.496;2024-03-22T01:23:38;10.65;;;4.22;;
69847;SDS011;57143;55.940;37.496;2024-03-22T01:26:05;11.25;;;4.95;;
69847;SDS011;57143;55.940;37.496;2024-03-22T01:28:31;12.65;;;4.40;;
69847;SDS011;57143;55.940;37.496;2024-03-22T01:30:58;15.38;;;4.88;;
69847;SDS011;57143;55.940;37.496;2024-03-22T01:33:26;10.30;;;4.23;;
69847;SDS011;57143;55.940;37.496;2024-03-22T01:35:53;11.85;;;4.30;;
69847;SDS011;57143;55.940;37.496;2024-03-22T01:38:20;12.07;;;4.55;;
69847;SDS011;57143;55.940;37.496;2024-03-22T01:40:47;12.23;;;4.22;;
69847;SDS011;57143;55.940;37.496;2024-03-22T01:43:14;11.02;;;3.92;;
69847;SDS011;57143;55.940;37.496;2024-03-22T01:45:41;11.70;;;4.70;;
69847;SDS011;57143;55.940;37.496;2024-03-22T01:48:07;16.58;;;5.43;;
69847;SDS011;57143;55.940;37.496;2024-03-22T01:50:36;13.35;;;4.55;;
69847;SDS011;57143;55.940;37.496;2024-03-22T01:53:04;16.80;;;4.30;;
69847;SDS011;57143;55.940;37.496;2024-03-22T01:55:31;12.13;;;4.28;;
69847;SDS011;57143;55.940;37.496;2024-03-22T01:57:58;12.97;;;4.57;;
69847;SDS011;57143;55.940;37.496;2024-03-22T02:00:25;13.05;;;4.68;;
69847;SDS011;57143;55.940;37.496;2024-03-22T02:02:52;13.07;;;4.75;;
69847;SDS011;57143;55.940;37.496;2024-03-22T02:05:19;14.55;;;4.55;;
69847;SDS011;57143;55.940;37.496;2024-03-22T02:07:48;10.98;;;4.05;;
69847;SDS011;57143;55.940;37.496;2024-03-22T02:10:15;10.90;;;4.10;;
69847;SDS011;57143;55.940;37.496;2024-03-22T02:12:45;15.10;;;4.70;;
69847;SDS011;57143;55.940;37.496;2024-03-22T02:15:11;10.98;;;4.15;;
69847;SDS011;57143;55.940;37.496;2024-03-22T02:17:39;13.48;;;4.43;;
69847;SDS011;57143;55.940;37.496;2024-03-22T02:20:06;15.82;;;4.55;;
69847;SDS011;57143;55.940;37.496;2024-03-22T02:22:34;14.47;;;4.37;;
69847;SDS011;57143;55.940;37.496;2024-03-22T02:25:02;11.52;;;3.95;;
69847;SDS011;57143;55.940;37.496;2024-03-22T02:27:30;9.15;;;3.85;;
69847;SDS011;57143;55.940;37.496;2024-03-22T02:29:56;13.85;;;3.90;;
69847;SDS011;57143;55.940;37.496;2024-03-22T02:32:23;9.40;;;4.20;;
69847;SDS011;57143;55.940;37.496;2024-03-22T02:34:50;11.43;;;4.07;;
69847;SDS011;57143;55.940;37.496;2024-03-22T02:37:17;11.52;;;3.33;;
69847;SDS011;57143;55.940;37.496;2024-03-22T02:39:43;14.52;;;3.78;;
69847;SDS011;57143;55.940;37.496;2024-03-22T02:42:12;14.55;;;3.78;;
69847;SDS011;57143;55.940;37.496;2024-03-22T02:44:38;15.15;;;4.20;;
69847;SDS011;57143;55.940;37.496;2024-03-22T02:47:08;11.87;;;4.00;;
69847;SDS011;57143;55.940;37.496;2024-03-22T02:49:35;11.25;;;3.63;;
69847;SDS011;57143;55.940;37.496;2024-03-22T02:52:02;10.25;;;3.53;;
69847;SDS011;57143;55.940;37.496;2024-03-22T02:54:29;11.57;;;3.88;;
69847;SDS011;57143;55.940;37.496;2024-03-22T02:56:56;7.93;;;3.38;;
69847;SDS011;57143;55.940;37.496;2024-03-22T02:59:26;12.20;;;4.43;;
69847;SDS011;57143;55.940;37.496;2024-03-22T03:01:54;13.80;;;4.78;;
69847;SDS011;57143;55.940;37.496;2024-03-22T03:04:20;15.38;;;4.70;;
69847;SDS011;57143;55.940;37.496;2024-03-22T03:06:48;13.60;;;4.82;;
69847;SDS011;57143;55.940;37.496;2024-03-22T03:09:14;14.07;;;4.43;;
69847;SDS011;57143;55.940;37.496;2024-03-22T03:11:41;15.00;;;4.53;;
69847;SDS011;57143;55.940;37.496;2024-03-22T03:14:08;11.32;;;5.13;;
69847;SDS011;57143;55.940;37.496;2024-03-22T03:16:36;12.32;;;4.85;;
69847;SDS011;57143;55.940;37.496;2024-03-22T03:19:03;16.02;;;4.22;;
69847;SDS011;57143;55.940;37.496;2024-03-22T03:21:30;9.77;;;3.28;;
69847;SDS011;57143;55.940;37.496;2024-03-22T03:23:56;14.33;;;4.90;;
69847;SDS011;57143;55.940;37.496;2024-03-22T03:26:24;12.88;;;5.10;;
69847;SDS011;57143;55.940;37.496;2024-03-22T03:28:50;11.88;;;4.45;;
69847;SDS011;57143;55.940;37.496;2024-03-22T03:31:17;12.10;;;4.22;;
69847;SDS011;57143;55.940;37.496;2024-03-22T03:33:45;12.23;;;4.55;;
69847;SDS011;57143;55.940;37.496;2024-03-22T03:36:12;12.80;;;5.80;;
69847;SDS011;57143;55.940;37.496;2024-03-22T03:38:38;12.68;;;4.60;;
69847;SDS011;57143;55.940;37.496;2024-03-22T03:41:06;14.18;;;5.30;;
69847;SDS011;57143;55.940;37.496;2024-03-22T03:43:33;15.02;;;6.18;;
69847;SDS011;57143;55.940;37.496;2024-03-22T03:46:00;13.82;;;5.40;;
69847;SDS011;57143;55.940;37.496;2024-03-22T03:48:26;15.93;;;6.13;;
69847;SDS011;57143;55.940;37.496;2024-03-22T03:50:55;16.00;;;5.55;;
69847;SDS011;57143;55.940;37.496;2024-03-22T03:53:24;17.50;;;5.72;;
69847;SDS011;57143;55.940;37.496;2024-03-22T03:55:52;14.80;;;5.85;;
69847;SDS011;57143;55.940;37.496;2024-03-22T03:58:18;13.50;;;5.40;;
69847;SDS011;57143;55.940;37.496;2024-03-22T04:00:45;15.73;;;5.07;;
69847;SDS011;57143;55.940;37.496;2024-03-22T04:03:12;12.05;;;5.10;;
69847;SDS011;57143;55.940;37.496;2024-03-22T04:05:39;15.57;;;5.60;;
69847;SDS011;57143;55.940;37.496;2024-03-22T04:08:07;15.98;;;6.13;;
69847;SDS011;57143;55.940;37.496;2024-03-22T04:10:34;14.48;;;5.35;;
69847;SDS011;57143;55.940;37.496;2024-03-22T04:13:01;15.63;;;5.43;;
69847;SDS011;57143;55.940;37.496;2024-03-22T04:15:28;14.20;;;6.45;;
69847;SDS011;57143;55.940;37.496;2024-03-22T04:17:56;16.35;;;5.75;;
69847;SDS011;57143;55.940;37.496;2024-03-22T04:20:23;15.27;;;6.85;;
69847;SDS011;57143;55.940;37.496;2024-03-22T04:22:50;14.32;;;7.03;;
69847;SDS011;57143;55.940;37.496;2024-03-22T04:25:19;17.63;;;6.70;;
69847;SDS011;57143;55.940;37.496;2024-03-22T04:27:45;19.85;;;6.65;;
69847;SDS011;57143;55.940;37.496;2024-03-22T04:30:13;17.38;;;7.22;;
69847;SDS011;57143;55.940;37.496;2024-03-22T04:32:39;19.30;;;7.20;;
69847;SDS011;57143;55.940;37.496;2024-03-22T04:35:07;20.02;;;8.55;;
69847;SDS011;57143;55.940;37.496;2024-03-22T04:37:34;16.23;;;7.13;;
69847;SDS011;57143;55.940;37.496;2024-03-22T04:40:01;17.77;;;6.78;;
69847;SDS011;57143;55.940;37.496;2024-03-22T04:42:31;15.85;;;6.85;;
69847;SDS011;57143;55.940;37.496;2024-03-22T04:44:57;14.63;;;6.88;;
69847;SDS011;57143;55.940;37.496;2024-03-22T04:47:24;16.73;;;7.63;;
69847;SDS011;57143;55.940;37.496;2024-03-22T04:49:51;20.30;;;7.23;;
69847;SDS011;57143;55.940;37.496;2024-03-22T04:52:18;17.30;;;6.97;;
69847;SDS011;57143;55.940;37.496;2024-03-22T04:54:44;18.50;;;6.97;;
69847;SDS011;57143;55.940;37.496;2024-03-22T04:57:13;21.48;;;7.20;;
69847;SDS011;57143;55.940;37.496;2024-03-22T04:59:40;19.85;;;7.72;;
69847;SDS011;57143;55.940;37.496;2024-03-22T05:02:08;21.23;;;7.70;;
69847;SDS011;57143;55.940;37.496;2024-03-22T05:04:34;16.67;;;7.20;;
69847;SDS011;57143;55.940;37.496;2024-03-22T05:07:02;17.15;;;7.68;;
69847;SDS011;57143;55.940;37.496;2024-03-22T05:09:29;17.50;;;7.45;;
69847;SDS011;57143;55.940;37.496;2024-03-22T05:11:57;21.77;;;7.75;;
69847;SDS011;57143;55.940;37.496;2024-03-22T05:14:25;15.93;;;8.00;;
69847;SDS011;57143;55.940;37.496;2024-03-22T05:16:52;14.38;;;7.70;;
69847;SDS011;57143;55.940;37.496;2024-03-22T05:19:20;22.02;;;7.82;;
69847;SDS011;57143;55.940;37.496;2024-03-22T05:21:46;17.58;;;7.47;;
69847;SDS011;57143;55.940;37.496;2024-03-22T05:24:13;13.90;;;8.00;;
69847;SDS011;57143;55.940;37.496;2024-03-22T05:26:40;19.60;;;7.80;;
69847;SDS011;57143;55.940;37.496;2024-03-22T05:29:07;19.85;;;8.07;;
69847;SDS011;57143;55.940;37.496;2024-03-22T05:31:35;19.65;;;7.32;;
69847;SDS011;57143;55.940;37.496;2024-03-22T05:34:15;17.42;;;8.32;;
69847;SDS011;57143;55.940;37.496;2024-03-22T05:36:41;19.60;;;7.95;;
69847;SDS011;57143;55.940;37.496;2024-03-22T05:39:09;21.90;;;8.10;;
69847;SDS011;57143;55.940;37.496;2024-03-22T05:41:36;13.57;;;6.72;;
69847;SDS011;57143;55.940;37.496;2024-03-22T05:44:03;18.60;;;8.18;;
69847;SDS011;57143;55.940;37.496;2024-03-22T05:46:30;16.55;;;7.38;;
69847;SDS011;57143;55.940;37.496;2024-03-22T05:48:57;15.15;;;7.57;;
69847;SDS011;57143;55.940;37.496;2024-03-22T05:51:25;17.30;;;8.13;;
69847;SDS011;57143;55.940;37.496;2024-03-22T05:53:53;20.27;;;8.30;;
69847;SDS011;57143;55.940;37.496;2024-03-22T05:56:19;17.88;;;8.48;;
69847;SDS011;57143;55.940;37.496;2024-03-22T05:58:46;21.35;;;8.45;;
69847;SDS011;57143;55.940;37.496;2024-03-22T06:01:13;16.50;;;7.85;;
69847;SDS011;57143;55.940;37.496;2024-03-22T06:03:40;20.80;;;8.70;;
69847;SDS011;57143;55.940;37.496;2024-03-22T06:06:06;18.38;;;8.40;;
69847;SDS011;57143;55.940;37.496;2024-03-22T06:08:35;19.50;;;7.78;;
69847;SDS011;57143;55.940;37.496;2024-03-22T06:11:06;18.90;;;8.10;;
69847;SDS011;57143;55.940;37.496;2024-03-22T06:13:34;24.48;;;8.18;;
69847;SDS011;57143;55.940;37.496;2024-03-22T06:16:02;28.17;;;8.83;;
69847;SDS011;57143;55.940;37.496;2024-03-22T06:18:30;22.08;;;8.32;;
69847;SDS011;57143;55.940;37.496;2024-03-22T06:20:56;22.90;;;9.95;;
69847;SDS011;57143;55.940;37.496;2024-03-22T06:23:23;19.08;;;7.82;;
69847;SDS011;57143;55.940;37.496;2024-03-22T06:25:54;20.60;;;9.30;;
69847;SDS011;57143;55.940;37.496;2024-03-22T06:28:22;18.93;;;8.50;;
69847;SDS011;57143;55.940;37.496;2024-03-22T06:31:07;17.77;;;7.40;;
69847;SDS011;57143;55.940;37.496;2024-03-22T06:33:34;22.75;;;8.57;;
69847;SDS011;57143;55.940;37.496;2024-03-22T06:36:01;20.25;;;8.63;;
69847;SDS011;57143;55.940;37.496;2024-03-22T06:38:29;18.00;;;8.95;;
69847;SDS011;57143;55.940;37.496;2024-03-22T06:40:57;20.13;;;8.30;;
69847;SDS011;57143;55.940;37.496;2024-03-22T06:43:25;18.80;;;8.23;;
69847;SDS011;57143;55.940;37.496;2024-03-22T06:45:51;30.83;;;10.57;;
69847;SDS011;57143;55.940;37.496;2024-03-22T06:48:18;25.77;;;9.10;;
69847;SDS011;57143;55.940;37.496;2024-03-22T06:50:45;17.20;;;8.50;;
69847;SDS011;57143;55.940;37.496;2024-03-22T06:53:12;17.87;;;8.77;;
69847;SDS011;57143;55.940;37.496;2024-03-22T06:55:38;19.98;;;9.15;;
69847;SDS011;57143;55.940;37.496;2024-03-22T06:58:07;16.50;;;8.30;;
69847;SDS011;57143;55.940;37.496;2024-03-22T07:00:33;19.30;;;8.00;;
69847;SDS011;57143;55.940;37.496;2024-03-22T07:03:01;20.88;;;7.65;;
69847;SDS011;57143;55.940;37.496;2024-03-22T07:05:28;16.87;;;7.60;;
69847;SDS011;57143;55.940;37.496;2024-03-22T07:07:56;20.02;;;8.00;;
69847;SDS011;57143;55.940;37.496;2024-03-22T07:10:23;18.33;;;7.25;;
69847;SDS011;57143;55.940;37.496;2024-03-22T07:12:54;16.65;;;7.72;;
69847;SDS011;57143;55.940;37.496;2024-03-22T07:15:22;20.88;;;8.65;;
69847;SDS011;57143;55.940;37.496;2024-03-22T07:17:50;21.80;;;8.20;;
69847;SDS011;57143;55.940;37.496;2024-03-22T07:20:17;18.60;;;8.63;;
69847;SDS011;57143;55.940;37.496;2024-03-22T07:22:44;19.88;;;8.00;;
69847;SDS011;57143;55.940;37.496;2024-03-22T07:25:11;17.63;;;7.97;;
69847;SDS011;57143;55.940;37.496;2024-03-22T07:27:38;17.75;;;8.50;;
69847;SDS011;57143;55.940;37.496;2024-03-22T07:30:05;15.80;;;7.87;;
69847;SDS011;57143;55.940;37.496;2024-03-22T07:32:34;15.77;;;7.47;;
69847;SDS011;57143;55.940;37.496;2024-03-22T07:35:01;19.73;;;7.28;;
69847;SDS011;57143;55.940;37.496;2024-03-22T07:37:28;15.82;;;7.13;;
69847;SDS011;57143;55.940;37.496;2024-03-22T07:39:55;17.67;;;7.57;;
69847;SDS011;57143;55.940;37.496;2024-03-22T07:42:22;17.63;;;7.70;;
69847;SDS011;57143;55.940;37.496;2024-03-22T07:44:48;16.38;;;7.20;;
69847;SDS011;57143;55.940;37.496;2024-03-22T07:47:16;18.38;;;7.43;;
69847;SDS011;57143;55.940;37.496;2024-03-22T07:49:44;20.77;;;8.25;;
69847;SDS011;57143;55.940;37.496;2024-03-22T07:52:11;15.07;;;7.63;;
69847;SDS011;57143;55.940;37.496;2024-03-22T07:54:37;15.33;;;8.40;;
69847;SDS011;57143;55.940;37.496;2024-03-22T07:57:05;17.05;;;7.78;;
69847;SDS011;57143;55.940;37.496;2024-03-22T07:59:32;17.50;;;8.68;;
69847;SDS011;57143;55.940;37.496;2024-03-22T08:02:00;16.42;;;7.80;;
69847;SDS011;57143;55.940;37.496;2024-03-22T08:04:28;15.35;;;7.50;;
69847;SDS011;57143;55.940;37.496;2024-03-22T08:06:57;19.27;;;7.83;;
69847;SDS011;57143;55.940;37.496;2024-03-22T08:09:23;21.92;;;7.22;;
69847;SDS011;57143;55.940;37.496;2024-03-22T08:11:51;17.23;;;7.18;;
69847;SDS011;57143;55.940;37.496;2024-03-22T08:14:17;18.65;;;7.70;;
69847;SDS011;57143;55.940;37.496;2024-03-22T08:16:44;14.55;;;6.93;;
69847;SDS011;57143;55.940;37.496;2024-03-22T08:19:11;14.77;;;6.43;;
69847;SDS011;57143;55.940;37.496;2024-03-22T08:21:38;18.13;;;7.32;;
69847;SDS011;57143;55.940;37.496;2024-03-22T08:24:06;15.30;;;6.50;;
69847;SDS011;57143;55.940;37.496;2024-03-22T08:26:34;11.40;;;6.05;;
69847;SDS011;57143;55.940;37.496;2024-03-22T08:29:00;15.65;;;7.00;;
69847;SDS011;57143;55.940;37.496;2024-03-22T08:31:27;15.67;;;6.53;;
69847;SDS011;57143;55.940;37.496;2024-03-22T08:33:54;17.75;;;6.63;;
69847;SDS011;57143;55.940;37.496;2024-03-22T08:36:22;12.75;;;6.18;;
69847;SDS011;57143;55.940;37.496;2024-03-22T08:38:49;15.02;;;7.00;;
69847;SDS011;57143;55.940;37.496;2024-03-22T08:41:18;16.00;;;7.22;;
69847;SDS011;57143;55.940;37.496;2024-03-22T08:43:44;14.13;;;6.40;;
69847;SDS011;57143;55.940;37.496;2024-03-22T08:46:12;15.60;;;6.32;;
69847;SDS011;57143;55.940;37.496;2024-03-22T08:48:38;15.45;;;6.43;;
69847;SDS011;57143;55.940;37.496;2024-03-22T08:51:05;15.07;;;5.93;;
69847;SDS011;57143;55.940;37.496;2024-03-22T08:53:32;13.75;;;6.65;;
69847;SDS011;57143;55.940;37.496;2024-03-22T08:55:59;14.47;;;6.63;;
69847;SDS011;57143;55.940;37.496;2024-03-22T08:58:27;11.90;;;6.15;;
69847;SDS011;57143;55.940;37.496;2024-03-22T09:00:54;21.58;;;7.03;;
69847;SDS011;57143;55.940;37.496;2024-03-22T09:03:20;17.33;;;6.07;;
69847;SDS011;57143;55.940;37.496;2024-03-22T09:05:47;16.52;;;7.38;;
69847;SDS011;57143;55.940;37.496;2024-03-22T09:08:18;13.23;;;6.30;;
69847;SDS011;57143;55.940;37.496;2024-03-22T09:10:47;16.58;;;7.82;;
69847;SDS011;57143;55.940;37.496;2024-03-22T09:13:13;15.38;;;6.85;;
69847;SDS011;57143;55.940;37.496;2024-03-22T09:15:42;20.27;;;7.50;;
69847;SDS011;57143;55.940;37.496;2024-03-22T09:18:08;18.63;;;8.10;;
69847;SDS011;57143;55.940;37.496;2024-03-22T09:20:35;18.83;;;7.10;;
69847;SDS011;57143;55.940;37.496;2024-03-22T09:23:01;16.80;;;6.93;;
69847;SDS011;57143;55.940;37.496;2024-03-22T09:25:29;17.75;;;6.70;;
69847;SDS011;57143;55.940;37.496;2024-03-22T09:27:55;19.98;;;7.22;;
69847;SDS011;57143;55.940;37.496;2024-03-22T09:30:23;19.85;;;7.40;;
69847;SDS011;57143;55.940;37.496;2024-03-22T09:32:51;15.10;;;7.07;;
69847;SDS011;57143;55.940;37.496;2024-03-22T09:35:18;15.77;;;7.40;;
69847;SDS011;57143;55.940;37.496;2024-03-22T09:37:46;15.18;;;6.00;;
69847;SDS011;57143;55.940;37.496;2024-03-22T09:40:12;17.92;;;7.28;;
69847;SDS011;57143;55.940;37.496;2024-03-22T09:42:41;19.50;;;7.15;;
69847;SDS011;57143;55.940;37.496;2024-03-22T09:45:08;20.57;;;7.33;;
69847;SDS011;57143;55.940;37.496;2024-03-22T09:47:37;16.27;;;7.32;;
69847;SDS011;57143;55.940;37.496;2024-03-22T09:50:06;15.52;;;7.13;;
69847;SDS011;57143;55.940;37.496;2024-03-22T09:52:35;17.60;;;7.00;;
69847;SDS011;57143;55.940;37.496;2024-03-22T09:55:04;13.57;;;6.30;;
69847;SDS011;57143;55.940;37.496;2024-03-22T09:57:32;15.97;;;6.33;;
69847;SDS011;57143;55.940;37.496;2024-03-22T10:00:01;18.17;;;7.40;;
69847;SDS011;57143;55.940;37.496;2024-03-22T10:02:29;14.48;;;5.88;;
69847;SDS011;57143;55.940;37.496;2024-03-22T10:04:56;11.70;;;4.88;;
69847;SDS011;57143;55.940;37.496;2024-03-22T10:07:25;16.63;;;5.38;;
69847;SDS011;57143;55.940;37.496;2024-03-22T10:09:51;14.43;;;5.70;;
69847;SDS011;57143;55.940;37.496;2024-03-22T10:12:19;16.10;;;5.68;;
69847;SDS011;57143;55.940;37.496;2024-03-22T10:14:46;13.23;;;5.75;;
69847;SDS011;57143;55.940;37.496;2024-03-22T10:17:13;11.05;;;4.63;;
69847;SDS011;57143;55.940;37.496;2024-03-22T10:19:39;15.50;;;4.90;;
69847;SDS011;57143;55.940;37.496;2024-03-22T10:22:07;10.47;;;4.00;;
69847;SDS011;57143;55.940;37.496;2024-03-22T10:24:35;12.70;;;3.90;;
69847;SDS011;57143;55.940;37.496;2024-03-22T10:27:02;9.68;;;3.75;;
69847;SDS011;57143;55.940;37.496;2024-03-22T10:29:29;6.78;;;3.30;;
69847;SDS011;57143;55.940;37.496;2024-03-22T10:31:56;11.73;;;3.80;;
69847;SDS011;57143;55.940;37.496;2024-03-22T10:34:22;8.93;;;3.33;;
69847;SDS011;57143;55.940;37.496;2024-03-22T10:36:51;13.57;;;3.45;;
69847;SDS011;57143;55.940;37.496;2024-03-22T10:39:18;10.25;;;3.38;;
69847;SDS011;57143;55.940;37.496;2024-03-22T10:41:47;15.40;;;4.53;;
69847;SDS011;57143;55.940;37.496;2024-03-22T10:44:15;15.15;;;4.75;;
69847;SDS011;57143;55.940;37.496;2024-03-22T10:46:43;12.37;;;3.93;;
69847;SDS011;57143;55.940;37.496;2024-03-22T10:49:11;12.32;;;4.53;;
69847;SDS011;57143;55.940;37.496;2024-03-22T10:51:42;14.32;;;4.30;;
69847;SDS011;57143;55.940;37.496;2024-03-22T10:54:12;17.42;;;3.67;;
69847;SDS011;57143;55.940;37.496;2024-03-22T10:56:49;11.23;;;4.28;;
69847;SDS011;57143;55.940;37.496;2024-03-22T10:59:18;10.23;;;3.90;;
69847;SDS011;57143;55.940;37.496;2024-03-22T11:01:46;9.70;;;3.65;;
69847;SDS011;57143;55.940;37.496;2024-03-22T11:04:14;12.88;;;3.20;;
69847;SDS011;57143;55.940;37.496;2024-03-22T11:06:46;8.93;;;3.15;;
69847;SDS011;57143;55.940;37.496;2024-03-22T11:09:18;13.23;;;3.70;;
69847;SDS011;57143;55.940;37.496;2024-03-22T11:11:49;11.17;;;3.53;;
69847;SDS011;57143;55.940;37.496;2024-03-22T11:14:18;10.05;;;3.90;;
69847;SDS011;57143;55.940;37.496;2024-03-22T11:16:46;10.00;;;3.60;;
69847;SDS011;57143;55.940;37.496;2024-03-22T11:19:13;10.20;;;3.20;;
69847;SDS011;57143;55.940;37.496;2024-03-22T11:21:40;9.93;;;3.47;;
69847;SDS011;57143;55.940;37.496;2024-03-22T11:24:07;9.30;;;3.00;;
69847;SDS011;57143;55.940;37.496;2024-03-22T11:26:35;13.10;;;3.42;;
69847;SDS011;57143;55.940;37.496;2024-03-22T11:29:03;9.82;;;3.00;;
69847;SDS011;57143;55.940;37.496;2024-03-22T11:31:31;7.18;;;3.25;;
69847;SDS011;57143;55.940;37.496;2024-03-22T11:33:58;7.82;;;2.97;;
69847;SDS011;57143;55.940;37.496;2024-03-22T11:36:26;9.83;;;3.40;;
69847;SDS011;57143;55.940;37.496;2024-03-22T11:38:53;10.38;;;3.80;;
69847;SDS011;57143;55.940;37.496;2024-03-22T11:41:22;9.20;;;2.85;;
69847;SDS011;57143;55.940;37.496;2024-03-22T11:43:51;8.60;;;3.40;;
69847;SDS011;57143;55.940;37.496;2024-03-22T11:46:21;10.82;;;3.05;;
69847;SDS011;57143;55.940;37.496;2024-03-22T11:48:50;8.63;;;3.87;;
69847;SDS011;57143;55.940;37.496;2024-03-22T11:51:18;10.18;;;3.70;;
69847;SDS011;57143;55.940;37.496;2024-03-22T11:53:48;6.30;;;2.40;;
69847;SDS011;57143;55.940;37.496;2024-03-22T11:56:17;8.18;;;3.53;;
69847;SDS011;57143;55.940;37.496;2024-03-22T11:58:45;11.10;;;2.80;;
69847;SDS011;57143;55.940;37.496;2024-03-22T12:01:14;7.27;;;3.03;;
69847;SDS011;57143;55.940;37.496;2024-03-22T12:03:44;10.00;;;3.72;;
69847;SDS011;57143;55.940;37.496;2024-03-22T12:06:13;8.00;;;2.85;;
69847;SDS011;57143;55.940;37.496;2024-03-22T12:08:41;11.95;;;2.85;;
69847;SDS011;57143;55.940;37.496;2024-03-22T12:11:08;9.52;;;3.40;;
69847;SDS011;57143;55.940;37.496;2024-03-22T12:13:37;12.70;;;3.03;;
69847;SDS011;57143;55.940;37.496;2024-03-22T12:16:05;10.32;;;3.58;;
69847;SDS011;57143;55.940;37.496;2024-03-22T12:18:33;9.35;;;3.58;;
69847;SDS011;57143;55.940;37.496;2024-03-22T12:21:02;13.07;;;3.95;;
69847;SDS011;57143;55.940;37.496;2024-03-22T12:23:29;8.93;;;3.88;;
69847;SDS011;57143;55.940;37.496;2024-03-22T12:25:56;10.73;;;2.90;;
69847;SDS011;57143;55.940;37.496;2024-03-22T12:28:22;8.43;;;3.35;;
69847;SDS011;57143;55.940;37.496;2024-03-22T12:30:50;12.25;;;3.92;;
69847;SDS011;57143;55.940;37.496;2024-03-22T12:33:16;9.73;;;3.20;;
69847;SDS011;57143;55.940;37.496;2024-03-22T12:35:44;11.70;;;3.58;;
69847;SDS011;57143;55.940;37.496;2024-03-22T12:38:13;9.30;;;3.50;;
69847;SDS011;57143;55.940;37.496;2024-03-22T12:40:41;15.45;;;3.50;;
69847;SDS011;57143;55.940;37.496;2024-03-22T12:43:08;12.43;;;3.25;;
69847;SDS011;57143;55.940;37.496;2024-03-22T12:45:37;9.73;;;2.88;;
69847;SDS011;57143;55.940;37.496;2024-03-22T12:48:04;7.70;;;2.75;;
69847;SDS011;57143;55.940;37.496;2024-03-22T12:50:32;10.57;;;2.67;;
69847;SDS011;57143;55.940;37.496;2024-03-22T12:52:59;7.82;;;3.28;;
69847;SDS011;57143;55.940;37.496;2024-03-22T12:55:28;7.90;;;3.35;;
69847;SDS011;57143;55.940;37.496;2024-03-22T12:57:56;10.40;;;3.17;;
69847;SDS011;57143;55.940;37.496;2024-03-22T13:00:24;11.82;;;3.50;;
69847;SDS011;57143;55.940;37.496;2024-03-22T13:02:50;8.43;;;2.80;;
69847;SDS011;57143;55.940;37.496;2024-03-22T13:05:18;12.02;;;3.22;;
69847;SDS011;57143;55.940;37.496;2024-03-22T13:07:45;13.40;;;3.28;;
69847;SDS011;57143;55.940;37.496;2024-03-22T13:10:12;9.30;;;2.80;;
69847;SDS011;57143;55.940;37.496;2024-03-22T13:12:40;8.80;;;3.25;;
69847;SDS011;57143;55.940;37.496;2024-03-22T13:15:08;8.63;;;3.47;;
69847;SDS011;57143;55.940;37.496;2024-03-22T13:17:35;10.25;;;3.17;;
69847;SDS011;57143;55.940;37.496;2024-03-22T13:20:02;8.55;;;3.25;;
69847;SDS011;57143;55.940;37.496;2024-03-22T13:22:35;10.35;;;3.15;;
69847;SDS011;57143;55.940;37.496;2024-03-22T13:25:03;8.27;;;3.10;;
69847;SDS011;57143;55.940;37.496;2024-03-22T13:27:33;8.70;;;3.47;;
69847;SDS011;57143;55.940;37.496;2024-03-22T13:30:02;7.75;;;3.10;;
69847;SDS011;57143;55.940;37.496;2024-03-22T13:32:30;11.00;;;3.13;;
69847;SDS011;57143;55.940;37.496;2024-03-22T13:34:57;8.80;;;3.55;;
69847;SDS011;57143;55.940;37.496;2024-03-22T13:37:24;9.40;;;3.10;;
69847;SDS011;57143;55.940;37.496;2024-03-22T13:39:51;11.43;;;3.30;;
69847;SDS011;57143;55.940;37.496;2024-03-22T13:42:18;8.07;;;3.05;;
69847;SDS011;57143;55.940;37.496;2024-03-22T13:44:45;9.43;;;3.35;;
69847;SDS011;57143;55.940;37.496;2024-03-22T13:47:13;10.40;;;3.47;;
69847;SDS011;57143;55.940;37.496;2024-03-22T13:49:40;9.30;;;3.35;;
69847;SDS011;57143;55.940;37.496;2024-03-22T13:52:08;8.03;;;2.87;;
69847;SDS011;57143;55.940;37.496;2024-03-22T13:54:36;10.38;;;3.47;;
69847;SDS011;57143;55.940;37.496;2024-03-22T13:57:02;11.45;;;3.10;;
69847;SDS011;57143;55.940;37.496;2024-03-22T13:59:30;7.50;;;3.05;;
69847;SDS011;57143;55.940;37.496;2024-03-22T14:01:59;9.40;;;2.65;;
69847;SDS011;57143;55.940;37.496;2024-03-22T14:04:30;11.87;;;3.23;;
69847;SDS011;57143;55.940;37.496;2024-03-22T14:06:56;9.93;;;3.10;;
69847;SDS011;57143;55.940;37.496;2024-03-22T14:09:24;8.73;;;3.00;;
69847;SDS011;57143;55.940;37.496;2024-03-22T14:11:52;11.65;;;3.45;;
69847;SDS011;57143;55.940;37.496;2024-03-22T14:14:19;8.15;;;2.60;;
69847;SDS011;57143;55.940;37.496;2024-03-22T14:16:45;9.00;;;3.00;;
69847;SDS011;57143;55.940;37.496;2024-03-22T14:19:13;11.88;;;3.28;;
69847;SDS011;57143;55.940;37.496;2024-03-22T14:21:42;9.38;;;3.08;;
69847;SDS011;57143;55.940;37.496;2024-03-22T14:24:09;14.25;;;3.67;;